Deering, AK

12:18 AM AKDT on March 27, 2015 (GMT -0800)
Deering (New) | | Change Station
CLOSE
Current Station
Airport
Location: Deering,
Elevation: 16 ft
Nearby Weather Stations

Elev 16 ft 66.07 °N, 162.77 °W | Updated 25 minutes ago

Clear
Clear
-5 °F
Feels Like -20 °F
N
8
Wind Variable Wind from SSW

Today
High -- | Low -- °F
--% Chance of Precip.
Yesterday
High -- | Low -- °F
Precip. -- in
8:24 AM 9:30 PM
Waxing Crescent, 50% visible
Pressure 29.57 in
Visibility 10.0 miles
Clouds Clear
Windchill -20 °F
Dew Point -10 °F
Humidity 80%
Rainfall 0.00 in
Snow Depth Not available.
UV 0 out of 12
Pollen Not available.
Air Quality Not available.
Flu Activity Not available.
METAR PADE 270753Z AUTO 20007KT 10SM CLR M21/M23 A2957 RMK AO2 SLP013 T12061233 TSNO

More Conditions Fewer Conditions

Pressure 29.57 in
Visibility 10.0 miles
Clouds Clear
Windchill -20 °F
Dew Point -10 °F
Humidity 80%
Rainfall 0.00 in
Snow Depth Not available.
UV 0 out of 12
Pollen Not available.
Air Quality Not available.
Flu Activity Not available.
METAR PADE 270753Z AUTO 20007KT 10SM CLR M21/M23 A2957 RMK AO2 SLP013 T12061233 TSNO

More Conditions Fewer Conditions

10-Day Weather Forecast

Almanac

Astronomy

Mar. 27, 2015 Rise Set
Actual Time
Civil Twilight
Nautical Twilight
Astronomical Twilight
Moon
Length of Visible Light
Length of Day
Tomorrow will be .
, % of the Moon is Illuminated

Today's Extremes

State Highs State Lows

Community

WunderPhotos

Upload Photos

1,808,705 photos uploaded!

WunderBlogs® & News

Nearby

Air Quality

  Air Quality AQ Index Pollutant
Not available.

Snow Depth

Station Depth Elevation

Earthquake Activity

City Distance Mag. Time & Date
Minimum magnitude displayed is 2.5.

Coastal Water Temperatures

Place Temperature

Stations

Nearby Weather Stations

Station Location Temp. Windchill Dew Point Humidity Wind Precip. Elev Updated Type